Atlantic, Pennsylvania
Current Conditions -  °F | °C
As of 8:53 AM on Saturday 22 Nov 2014 (Local Time) from KGKJ Reporting Station
Overcast Overcast  
Wind Chill: 18°   Ceiling: 2800
Heat Index: 26°   Visibility: 10mi
Dew Point: 11°   Wind: 8mph
Humidity: 53%   Direction: 180°S
Pressure: 30.22"   Gusts: NA
Location:  41.5°N, 80.33°W
Report Text: KGKJ 221353Z AUTO 18007KT 160V220 10SM BKN028 OVC038 M03/M12 A3022 RMK AO2 SLP254 T10331117 TSNO
Loading
Personal Weather Stations






























Interactive Weather Map New forecast layout! Learn more

10-Day Weather Forecast

Advertisements
Track Severe Weather on mobile